• Join FlightAware (Why Join?)
  • Login
  • US Flag 
11:17AM EDT


 

Airport Tracker/Info


-or-


 

Live Flight TrackerFlight Track Log ✈ EJM949 ✈ 30-May-2014 ✈ KSFO - KMFR

Flight Track Log - Related Links

Times and Time Zones

All times are in EDT time to prevent confusion due to time zone crossing. See the EJM949 flight status page for this flight to view local times or setup timezone preferences in your user account.

Time Position Orientation Groundspeed Altitude Reporting Facility
EDT Latitude Longitude Course Direction KTS MPH feet Rate Location/Type
09:27PM 37.6188 -122.3690 299° West 147 169 200  Level FlightAware ADS-B
09:27PM 37.6239 -122.3800 308° West 155 178 1,400 4,680 Climbing FlightAware ADS-B
09:27PM 37.6268 -122.3830 324° Northwest 164 189 1,700 3,720 Climbing FlightAware ADS-B
09:27PM 37.6291 -122.3850 335° Northwest 172 198 1,900 3,960 Climbing FlightAware ADS-B
09:27PM 37.6337 -122.3870 349° North 183 211 2,300 4,500 Climbing FlightAware ADS-B
09:27PM 37.6393 -122.3870 North 195 224 2,800 4,500 Climbing FlightAware ADS-B
09:27PM 37.6444 -122.3850 19° North 200 230 3,200 4,800 Climbing FlightAware ADS-B
09:28PM 37.6478 -122.3830 26° Northeast 203 234 3,600 5,400 Climbing FlightAware ADS-B
09:28PM 37.6525 -122.3790 42° Northeast 210 242 4,100 4,320 Climbing FlightAware ADS-B
09:28PM 37.6550 -122.3750 52° Northeast 210 242 4,400 4,620 Climbing FlightAware ADS-B
09:28PM 37.6673 -122.3500 58° Northeast 217 250 6,200 4,680 Climbing FlightAware ADS-B
09:28PM 37.6758 -122.3330 58° Northeast 235 270 7,300 4,680 Climbing FlightAware ADS-B
09:29PM 37.6832 -122.3180 58° Northeast 232 267 8,400 5,100 Climbing FlightAware ADS-B
09:29PM 37.6873 -122.3120 48° Northeast 232 267 9,000 5,040 Climbing FlightAware ADS-B
09:29PM 37.6920 -122.3060 40° Northeast 234 269 9,500 4,140 Climbing FlightAware ADS-B
09:29PM 37.6985 -122.3000 36° Northeast 239 275 9,900 3,180 Climbing FlightAware ADS-B
09:29PM 37.7045 -122.2960 27° Northeast 253 291 10,200 2,520 Climbing FlightAware ADS-B
09:29PM 37.7137 -122.2920 17° North 270 311 10,500 2,160 Climbing FlightAware ADS-B
09:29PM 37.7278 -122.2890 North 293 337 10,900 1,800 Climbing FlightAware ADS-B
09:30PM 37.7476 -122.2886 North 335 386 11,400 1,860 Climbing FlightAware ADS-B (KPAO)
09:30PM 37.7923 -122.2880 North 293 337 12,200 4,560 Climbing FlightAware ADS-B
09:32PM 37.9875 -122.3007 356° North 345 397 22,100 4,140 Climbing FlightAware ADS-B (KPAO)
09:33PM 38.0727 -122.3090 1000° North 362 417 23,600 1,740 Climbing FlightAware ADS-B
09:33PM 38.1035 -122.3122 356° North 429 494 24,300 2,340 Climbing FlightAware ADS-B
09:34PM 38.2011 -122.3220 356° North 447 514 26,200 2,700 Climbing FlightAware ADS-B
09:35PM 38.2879 -122.3306 356° North 468 539 27,900 2,280 Climbing FlightAware ADS-B
09:35PM 38.3535 -122.3371 356° North 485 558 29,300 2,280 Climbing FlightAware ADS-B
09:36PM 38.4689 -122.3485 356° North 497 572 31,000 2,700 Climbing FlightAware ADS-B
09:37PM 38.5589 -122.3575 356° North 496 571 33,000 3,120 Climbing FlightAware ADS-B
09:37PM 38.6471 -122.3664 355° North 491 565 35,200 3,180 Climbing FlightAware ADS-B
09:38PM 38.7349 -122.3752 356° North 481 554 37,300 2,100 Climbing FlightAware ADS-B
09:39PM 38.8237 -122.3842 356° North 489 563 38,000 180 Climbing FlightAware ADS-B
09:41PM 39.1799 -122.4204 356° North 481 554 38,000  Level FlightAware ADS-B
09:42PM 39.2758 -122.4301 356° North 483 556 38,000  Level FlightAware ADS-B
09:43PM 39.3643 -122.4392 355° North 483 556 38,000  Level FlightAware ADS-B
09:43PM 39.4540 -122.4485 356° North 484 557 38,000  Level FlightAware ADS-B
09:45PM 39.7510 -122.4790 355° North 479 551 38,000  Level FlightAware ADS-B
09:47PM 40.0018 -122.5052 355° North 477 549 38,000 -360 Level FlightAware ADS-B
09:51PM 40.5289 -122.5606 355° North 471 542 36,000 -780 Descending FlightAware ADS-B (KAHC)
09:52PM 40.6260 -122.5709 355° North 464 534 34,300 -1,980 Descending FlightAware ADS-B (KAHC)
09:53PM 40.7303 -122.5819 355° North 460 529 32,600 -2,160 Descending Seattle Center
09:54PM 40.8828 -122.5983 355° North 458 527 30,000 -2,340 Descending Seattle Center
09:55PM 41.0075 -122.6117 355° North 441 507 27,900 -2,100 Descending Seattle Center
09:56PM 41.1275 -122.6247 355° North 432 497 25,800 -1,980 Descending Seattle Center
09:57PM 41.2450 -122.6375 355° North 414 476 23,900 -2,100 Descending Seattle Center
09:58PM 41.3594 -122.6522 354° North 409 471 21,600 -2,220 Descending Seattle Center
09:59PM 41.4544 -122.7047 338° Northwest 405 466 19,500 -2,340 Descending Seattle Center
10:00PM 41.5547 -122.7608 337° Northwest 392 451 16,900 -2,640 Descending Seattle Center
10:01PM 41.6750 -122.8050 345° North 381 438 14,200 -2,340 Descending Seattle Center
10:02PM 41.7664 -122.8114 357° North 333 383 12,200 -1,200 Descending Seattle Center
10:03PM 41.8500 -122.7914 10° North 306 352 11,800 -540 Descending Seattle Center
10:04PM 41.9183 -122.7756 10° North 254 292 11,200 -420 Descending Seattle Center
10:05PM 41.9853 -122.7594 10° North 248 285 11,000 -540 Descending Seattle Center
10:06PM 42.0478 -122.7425 11° North 216 249 10,200 -840 Descending Seattle Center
10:07PM 42.0981 -122.7306 10° North 185 213 9,300 -840 Descending Seattle Center
10:08PM 42.1361 -122.7447 345° North 140 161 8,500 -1,140 Descending Seattle Center
10:09PM 42.1689 -122.7636 337° Northwest 132 152 7,000 -1,380 Descending Seattle Center
10:10PM 42.2025 -122.7814 339° North 131 151 5,800 -1,080 Descending Seattle Center
10:11PM 42.2403 -122.8025 338° Northwest 132 152 4,900 -960 Descending Seattle Center
10:12PM 42.2797 -122.8219 340° North 144 166 3,900 -1,140 Descending Seattle Center
10:13PM 42.3150 -122.8417 338° Northwest 142 163 2,700 -1,080 Descending Seattle Center
10:14PM 42.3486 -122.8589 339° North 132 152 1,800 -780 Descending Seattle Center
10:15PM 42.3789 -122.8736 340° North 119 137 1,200 -600 Descending Seattle Center
10:17PM 42.3742 -122.8735 340° North  Level Estimated
10:24PM 42.3742 -122.8735 340° North  Level Estimated
10:25PM 42.3742 -122.8735 340° North  Level Estimated